createdAt,value
2023-02-23T00:02:21.714Z,77.19
2023-02-23T00:04:51.515Z,77.42
2023-02-23T00:07:22.454Z,77.12
2023-02-23T00:09:52.996Z,77.35
2023-02-23T00:12:21.443Z,77.16
2023-02-23T00:14:54.603Z,77.54
2023-02-23T00:17:27.529Z,77.38
2023-02-23T00:19:57.486Z,77.39
2023-02-23T00:22:30.795Z,77.08
2023-02-23T00:25:03.286Z,77.02
2023-02-23T00:27:31.730Z,77.30
2023-02-23T00:30:00.855Z,76.64
2023-02-23T00:32:29.887Z,77.93
2023-02-23T00:34:58.717Z,77.49
2023-02-23T00:37:35.756Z,77.55
2023-02-23T00:40:05.767Z,77.29
2023-02-23T00:42:36.531Z,78.19
2023-02-23T00:45:11.147Z,78.08
2023-02-23T00:47:40.003Z,77.63
2023-02-23T00:50:13.920Z,78.26
2023-02-23T00:52:43.865Z,78.69
2023-02-23T00:55:15.582Z,78.10
2023-02-23T00:57:45.928Z,78.32
2023-02-23T01:00:20.101Z,78.15
2023-02-23T01:02:48.939Z,78.19
2023-02-23T01:05:17.746Z,78.88
2023-02-23T01:07:51.752Z,79.00
2023-02-23T01:10:23.730Z,79.27
2023-02-23T01:12:57.621Z,79.10
2023-02-23T01:15:28.658Z,79.28
2023-02-23T01:17:57.202Z,79.00
2023-02-23T01:20:27.468Z,79.05
2023-02-23T01:22:58.375Z,79.18
2023-02-23T01:25:28.680Z,78.78
2023-02-23T01:28:01.983Z,78.90
2023-02-23T01:30:31.948Z,78.29
2023-02-23T01:33:00.974Z,78.79
2023-02-23T01:35:29.025Z,78.50
2023-02-23T01:38:00.069Z,78.45
2023-02-23T01:40:30.781Z,78.05
2023-02-23T01:43:12.020Z,78.47
2023-02-23T01:45:42.657Z,78.56
2023-02-23T01:48:15.595Z,79.14
2023-02-23T01:50:49.482Z,78.90
2023-02-23T01:53:22.984Z,80.97
2023-02-23T01:55:55.979Z,81.36
2023-02-23T01:58:26.521Z,82.32
2023-02-23T02:00:59.367Z,83.37
2023-02-23T02:03:32.808Z,83.65
2023-02-23T02:06:04.544Z,84.58
2023-02-23T02:08:44.911Z,86.08
2023-02-23T02:11:26.550Z,86.04
2023-02-23T02:13:55.430Z,86.26
2023-02-23T02:16:49.173Z,87.12
2023-02-23T02:19:44.422Z,86.82
2023-02-23T02:22:39.906Z,87.29
2023-02-23T02:25:33.939Z,87.51
2023-02-23T02:28:36.308Z,87.69
2023-02-23T02:31:57.136Z,88.61
2023-02-23T02:35:07.790Z,88.43
2023-02-23T02:37:49.026Z,88.70
2023-02-23T02:40:27.082Z,89.07
2023-02-23T02:43:09.788Z,89.33
2023-02-23T02:45:44.618Z,89.32
2023-02-23T02:48:22.424Z,89.02
2023-02-23T02:51:01.063Z,89.70
2023-02-23T02:53:41.290Z,89.49
2023-02-23T02:56:11.148Z,89.48
2023-02-23T02:58:43.941Z,90.05
2023-02-23T03:01:33.767Z,90.10
2023-02-23T03:04:38.881Z,90.68
2023-02-23T03:07:35.079Z,91.38
2023-02-23T03:10:34.186Z,90.63
2023-02-23T03:13:36.125Z,90.16
2023-02-23T03:16:34.475Z,90.73
2023-02-23T03:19:31.937Z,90.83
2023-02-23T03:22:26.509Z,90.84
2023-02-23T03:25:22.481Z,90.71
2023-02-23T03:28:14.046Z,90.94
2023-02-23T03:31:08.557Z,91.21
2023-02-23T03:34:05.012Z,90.49
2023-02-23T03:36:58.059Z,89.97
2023-02-23T03:39:51.750Z,90.58
2023-02-23T03:42:42.733Z,90.11
2023-02-23T03:45:40.146Z,90.60
2023-02-23T03:48:33.436Z,90.71
2023-02-23T03:51:24.141Z,91.24
2023-02-23T03:54:15.829Z,90.33
2023-02-23T03:57:05.595Z,91.10
2023-02-23T03:59:57.541Z,91.29
2023-02-23T04:02:46.764Z,91.46
2023-02-23T04:05:39.500Z,91.63
2023-02-23T04:08:30.725Z,91.18
2023-02-23T04:11:28.549Z,91.65
2023-02-23T04:14:07.414Z,91.59
2023-02-23T04:16:35.062Z,91.57
2023-02-23T04:19:05.543Z,92.07
2023-02-23T04:21:33.370Z,92.14
2023-02-23T04:24:04.152Z,92.32
2023-02-23T04:26:33.985Z,91.84
2023-02-23T04:29:02.417Z,92.37
2023-02-23T04:31:32.156Z,91.59
2023-02-23T04:34:02.121Z,92.53
2023-02-23T04:36:34.596Z,91.74
2023-02-23T04:39:05.962Z,92.07
2023-02-23T04:41:33.959Z,91.79
2023-02-23T04:44:06.924Z,91.88
2023-02-23T04:46:36.190Z,92.23
2023-02-23T04:49:07.855Z,91.45
2023-02-23T04:51:37.447Z,92.98
2023-02-23T04:54:07.318Z,91.92
2023-02-23T04:56:39.466Z,92.25
2023-02-23T04:59:10.913Z,93.17
2023-02-23T05:01:39.743Z,92.90
2023-02-23T05:04:07.957Z,92.00
2023-02-23T05:06:37.642Z,92.32
2023-02-23T05:09:07.207Z,92.24
2023-02-23T05:11:35.589Z,92.03
2023-02-23T05:14:07.033Z,92.13
2023-02-23T05:16:35.928Z,92.34
2023-02-23T05:19:04.424Z,91.71
2023-02-23T05:21:32.794Z,91.34
2023-02-23T05:24:02.451Z,91.49
2023-02-23T05:26:32.671Z,91.63
2023-02-23T05:29:03.514Z,92.26
2023-02-23T05:31:31.845Z,92.19
2023-02-23T05:34:00.231Z,91.28
2023-02-23T05:36:29.649Z,91.33
2023-02-23T05:38:58.010Z,91.09
2023-02-23T05:41:30.315Z,91.08
2023-02-23T05:44:02.112Z,91.59
2023-02-23T05:46:30.761Z,91.33
2023-02-23T05:49:00.751Z,91.39
2023-02-23T05:51:31.991Z,92.01
2023-02-23T05:54:00.803Z,92.32
2023-02-23T05:56:30.370Z,92.78
2023-02-23T05:59:04.841Z,92.63
2023-02-23T06:01:40.245Z,93.55
2023-02-23T06:04:10.418Z,94.21
2023-02-23T06:06:43.029Z,93.27
2023-02-23T06:09:11.316Z,93.24
2023-02-23T06:11:43.330Z,93.43
2023-02-23T06:14:17.483Z,94.09
2023-02-23T06:16:45.481Z,94.28
2023-02-23T06:19:16.825Z,94.87
2023-02-23T06:21:48.866Z,94.43
2023-02-23T06:24:19.205Z,93.75
2023-02-23T06:26:51.412Z,94.16
2023-02-23T06:29:21.617Z,94.60
2023-02-23T06:31:52.526Z,94.59
2023-02-23T06:34:21.303Z,94.08
2023-02-23T06:36:51.391Z,95.41
2023-02-23T06:39:20.176Z,94.90
2023-02-23T06:41:51.480Z,94.25
2023-02-23T06:44:20.896Z,94.31
2023-02-23T06:46:49.337Z,94.36
2023-02-23T06:49:18.962Z,94.16
2023-02-23T06:51:47.854Z,94.49
2023-02-23T06:54:21.725Z,93.69
2023-02-23T06:56:58.302Z,94.35
2023-02-23T06:59:28.378Z,94.51
2023-02-23T07:01:57.445Z,93.67
2023-02-23T07:04:25.745Z,94.08
2023-02-23T07:06:54.668Z,93.59
2023-02-23T07:09:25.589Z,94.15
2023-02-23T07:11:58.424Z,93.54
2023-02-23T07:14:29.192Z,92.95
2023-02-23T07:16:59.697Z,93.41
2023-02-23T07:19:28.784Z,93.82
2023-02-23T07:21:59.369Z,92.72
2023-02-23T07:24:33.582Z,93.21
2023-02-23T07:27:10.063Z,93.53
2023-02-23T07:29:38.868Z,93.13
2023-02-23T07:32:09.616Z,94.03
2023-02-23T07:34:38.263Z,93.98
2023-02-23T07:37:07.240Z,92.26
2023-02-23T07:39:37.802Z,92.65
2023-02-23T07:42:09.478Z,92.69
2023-02-23T07:44:46.907Z,92.42
2023-02-23T07:47:20.352Z,92.40
2023-02-23T07:49:48.411Z,92.19
2023-02-23T07:52:19.278Z,92.57
2023-02-23T07:54:49.584Z,92.24
2023-02-23T07:57:21.617Z,91.59
2023-02-23T07:59:52.066Z,92.16
2023-02-23T08:02:20.025Z,91.54
2023-02-23T08:04:49.437Z,91.22
2023-02-23T08:07:19.093Z,91.22
2023-02-23T08:09:47.700Z,91.04
2023-02-23T08:12:16.383Z,90.90
2023-02-23T08:14:46.839Z,90.78
2023-02-23T08:17:18.047Z,90.84
2023-02-23T08:19:49.371Z,90.52
2023-02-23T08:22:19.398Z,91.19
2023-02-23T08:24:51.133Z,90.91
2023-02-23T08:27:22.994Z,90.51
2023-02-23T08:29:53.085Z,90.34
2023-02-23T08:32:21.284Z,89.45
2023-02-23T08:34:54.165Z,88.77
2023-02-23T08:37:25.719Z,89.16
2023-02-23T08:39:54.049Z,90.47
2023-02-23T08:42:24.860Z,90.78
2023-02-23T08:44:54.574Z,91.18
2023-02-23T08:47:24.266Z,90.41
2023-02-23T08:49:57.132Z,90.35
2023-02-23T08:52:25.437Z,90.30
2023-02-23T08:54:54.067Z,89.32
2023-02-23T08:57:22.259Z,90.22
2023-02-23T08:59:51.871Z,88.80
2023-02-23T09:02:25.211Z,90.32
2023-02-23T09:04:54.071Z,89.72
2023-02-23T09:07:25.290Z,88.55
2023-02-23T09:09:56.896Z,88.10
2023-02-23T09:12:26.376Z,88.28
2023-02-23T09:14:56.674Z,87.89
2023-02-23T09:17:26.799Z,88.47
2023-02-23T09:19:54.749Z,87.31
2023-02-23T09:22:25.982Z,87.61
2023-02-23T09:24:55.914Z,88.08
2023-02-23T09:27:25.139Z,86.27
2023-02-23T09:29:53.748Z,87.26
2023-02-23T09:32:22.259Z,86.65
2023-02-23T09:34:52.545Z,87.34
2023-02-23T09:37:21.831Z,87.17
2023-02-23T09:39:53.467Z,86.29
2023-02-23T09:45:26.868Z,85.57
2023-02-23T09:48:11.057Z,86.41
2023-02-23T09:50:47.634Z,86.63
2023-02-23T09:53:29.497Z,86.86
2023-02-23T09:56:02.921Z,86.20
2023-02-23T09:58:36.738Z,85.13
2023-02-23T10:01:42.677Z,86.34
2023-02-23T10:04:23.916Z,85.00
2023-02-23T10:07:04.178Z,84.62
2023-02-23T10:09:54.795Z,82.49
2023-02-23T10:12:32.252Z,82.47
2023-02-23T10:15:11.265Z,81.64
2023-02-23T10:17:50.188Z,82.48
2023-02-23T10:20:31.670Z,80.67
2023-02-23T10:23:06.774Z,80.35
2023-02-23T10:25:42.056Z,82.47
2023-02-23T10:28:14.642Z,80.67
2023-02-23T10:30:43.064Z,79.83
2023-02-23T10:33:17.414Z,79.05
2023-02-23T10:35:47.998Z,80.65
2023-02-23T10:38:20.612Z,78.97
2023-02-23T10:40:54.598Z,79.55
2023-02-23T10:43:25.784Z,81.19
2023-02-23T10:45:55.986Z,81.82
2023-02-23T10:48:31.434Z,81.65
2023-02-23T10:51:02.897Z,79.55
2023-02-23T10:53:36.351Z,80.48
2023-02-23T10:56:10.780Z,79.36
2023-02-23T10:58:46.873Z,77.80
2023-02-23T11:01:18.957Z,78.52
2023-02-23T11:03:57.556Z,78.44
2023-02-23T11:06:41.323Z,79.65
2023-02-23T11:09:41.318Z,79.82
2023-02-23T11:12:21.782Z,77.74
2023-02-23T11:14:58.524Z,78.50
2023-02-23T11:17:37.557Z,77.83
2023-02-23T11:20:23.942Z,78.86
2023-02-23T11:22:55.744Z,76.76
2023-02-23T11:25:30.758Z,76.70
2023-02-23T11:28:01.419Z,76.98
2023-02-23T11:30:43.909Z,77.93
2023-02-23T11:33:23.187Z,78.09
2023-02-23T11:36:00.550Z,78.52
2023-02-23T11:38:32.595Z,78.00
2023-02-23T11:41:26.065Z,77.59
2023-02-23T11:43:59.742Z,77.43
2023-02-23T11:46:32.786Z,76.06
2023-02-23T11:49:07.911Z,75.48
2023-02-23T11:51:40.683Z,74.43
2023-02-23T11:54:27.170Z,71.76
2023-02-23T11:56:57.928Z,68.97
2023-02-23T11:59:31.228Z,71.25
2023-02-23T12:02:08.695Z,72.14
2023-02-23T12:04:47.452Z,72.54
2023-02-23T12:07:41.563Z,69.44
2023-02-23T12:10:23.289Z,67.45
2023-02-23T12:13:04.447Z,69.51
2023-02-23T12:15:46.275Z,69.34
2023-02-23T12:18:35.827Z,68.23
2023-02-23T12:21:15.487Z,68.20
2023-02-23T12:23:50.812Z,68.71
2023-02-23T12:26:26.590Z,68.71
2023-02-23T12:29:02.969Z,69.04
2023-02-23T12:31:44.118Z,69.37
2023-02-23T12:34:20.671Z,69.55
2023-02-23T12:36:56.224Z,68.57
2023-02-23T12:39:33.542Z,68.41
2023-02-23T12:42:09.097Z,71.29
2023-02-23T12:44:46.355Z,71.43
2023-02-23T12:47:24.751Z,69.94
2023-02-23T12:50:01.359Z,69.40
2023-02-23T12:52:32.358Z,67.50
2023-02-23T12:55:04.156Z,68.78
2023-02-23T12:57:40.980Z,69.12
2023-02-23T13:00:42.461Z,68.46
2023-02-23T13:03:49.825Z,69.92
2023-02-23T13:06:31.769Z,69.15
2023-02-23T13:09:11.248Z,69.58
2023-02-23T13:12:10.224Z,69.40
2023-02-23T13:14:52.958Z,68.16
2023-02-23T13:17:43.204Z,68.83
2023-02-23T13:20:20.603Z,68.55
2023-02-23T13:22:56.721Z,67.33
2023-02-23T13:25:42.549Z,67.00
2023-02-23T13:28:19.281Z,67.78
2023-02-23T13:30:53.048Z,68.32
2023-02-23T13:33:43.604Z,68.18
2023-02-23T13:36:17.570Z,67.90
2023-02-23T13:39:32.972Z,66.93
2023-02-23T13:42:33.041Z,68.06
2023-02-23T13:45:25.794Z,68.89
2023-02-23T13:48:02.454Z,68.23
2023-02-23T13:50:43.821Z,67.34
2023-02-23T13:53:34.615Z,66.25
2023-02-23T13:56:08.539Z,67.50
2023-02-23T13:58:39.830Z,67.91
2023-02-23T14:01:19.980Z,65.95
2023-02-23T14:03:55.817Z,66.90
2023-02-23T14:06:32.915Z,66.68
2023-02-23T14:09:09.627Z,65.67
2023-02-23T14:11:48.492Z,64.42
2023-02-23T14:14:44.369Z,62.88
2023-02-23T14:17:41.996Z,63.79
2023-02-23T14:20:29.832Z,61.85
2023-02-23T14:23:18.921Z,61.58
2023-02-23T14:25:55.162Z,60.42
2023-02-23T14:28:36.987Z,61.86
2023-02-23T14:31:20.527Z,61.58
2023-02-23T14:34:03.299Z,60.92
2023-02-23T14:36:37.262Z,62.82
2023-02-23T14:39:10.824Z,62.93
2023-02-23T14:41:46.832Z,63.21
2023-02-23T14:44:28.950Z,62.04
2023-02-23T14:47:09.670Z,62.48
2023-02-23T14:49:46.949Z,62.24
2023-02-23T14:52:21.785Z,62.50
2023-02-23T14:54:50.145Z,60.91
2023-02-23T14:57:22.665Z,60.84
2023-02-23T14:59:57.993Z,61.14
2023-02-23T15:02:31.125Z,63.17
2023-02-23T15:05:01.886Z,62.39
2023-02-23T15:07:45.241Z,62.61
2023-02-23T15:10:22.511Z,63.17
2023-02-23T15:12:50.694Z,63.20
2023-02-23T15:15:24.946Z,63.68
2023-02-23T15:17:58.757Z,63.07
2023-02-23T15:20:37.178Z,63.50
2023-02-23T15:23:06.827Z,63.87
2023-02-23T15:25:38.821Z,65.81
2023-02-23T15:28:22.931Z,63.97
2023-02-23T15:30:56.806Z,64.29
2023-02-23T15:33:28.391Z,65.29
2023-02-23T15:36:05.243Z,65.20
2023-02-23T15:38:44.829Z,65.57
2023-02-23T15:41:26.760Z,66.16
2023-02-23T15:43:57.260Z,66.63
2023-02-23T15:46:30.491Z,66.93
2023-02-23T15:49:03.337Z,66.11
2023-02-23T15:51:37.861Z,65.80
2023-02-23T15:54:14.224Z,65.89
2023-02-23T15:56:50.189Z,65.90
2023-02-23T15:59:24.606Z,66.36
2023-02-23T16:01:55.770Z,66.72
2023-02-23T16:04:30.559Z,67.43
2023-02-23T16:07:19.545Z,66.70
2023-02-23T16:09:57.705Z,66.37
2023-02-23T16:12:32.053Z,66.53
2023-02-23T16:15:03.407Z,66.68
2023-02-23T16:17:42.603Z,66.30
2023-02-23T16:20:17.492Z,65.85
2023-02-23T16:22:53.658Z,65.29
2023-02-23T16:25:28.416Z,65.75
2023-02-23T16:28:02.929Z,65.46
2023-02-23T16:30:42.892Z,66.84
2023-02-23T16:33:19.838Z,66.88
2023-02-23T16:35:50.637Z,67.12
2023-02-23T16:38:31.619Z,67.52
2023-02-23T16:41:01.647Z,67.33
2023-02-23T16:43:31.685Z,66.82
2023-02-23T16:46:00.141Z,67.84
2023-02-23T16:48:30.397Z,67.15
2023-02-23T16:50:59.142Z,68.49
2023-02-23T16:53:31.456Z,68.80
2023-02-23T16:56:06.936Z,69.05
2023-02-23T16:58:36.947Z,69.16
2023-02-23T17:01:06.964Z,68.62
2023-02-23T17:03:43.801Z,68.89
2023-02-23T17:06:15.807Z,68.48
2023-02-23T17:08:56.151Z,68.53
2023-02-23T17:11:26.253Z,69.13
2023-02-23T17:14:03.214Z,69.06
2023-02-23T17:16:31.242Z,68.88
2023-02-23T17:19:01.873Z,69.83
2023-02-23T17:21:31.714Z,69.31
2023-02-23T17:24:03.631Z,69.09
2023-02-23T17:26:36.675Z,69.59
2023-02-23T17:29:07.763Z,69.62
2023-02-23T17:31:40.468Z,70.17
2023-02-23T17:34:11.481Z,69.75
2023-02-23T17:36:40.177Z,69.35
2023-02-23T17:39:10.406Z,70.22
2023-02-23T17:41:40.190Z,69.91
2023-02-23T17:44:08.246Z,70.68
2023-02-23T17:46:37.146Z,70.65
2023-02-23T17:49:05.743Z,70.21
2023-02-23T17:51:36.491Z,70.19
2023-02-23T17:54:05.037Z,71.27
2023-02-23T17:56:36.713Z,71.91
2023-02-23T17:59:05.615Z,71.69
2023-02-23T18:01:34.532Z,71.36
2023-02-23T18:04:02.640Z,71.00
2023-02-23T18:06:30.575Z,72.10
2023-02-23T18:09:04.795Z,71.38
2023-02-23T18:11:38.295Z,72.19
2023-02-23T18:14:09.577Z,72.46
2023-02-23T18:16:38.508Z,71.84
2023-02-23T18:19:06.521Z,72.81
2023-02-23T18:21:40.667Z,71.70
2023-02-23T18:24:16.398Z,72.20
2023-02-23T18:26:47.564Z,71.94
2023-02-23T18:29:23.017Z,71.19
2023-02-23T18:31:52.774Z,71.32
2023-02-23T18:34:21.315Z,72.12
2023-02-23T18:36:53.068Z,72.15
2023-02-23T18:39:21.669Z,72.50
2023-02-23T18:41:51.472Z,72.13
2023-02-23T18:44:23.968Z,71.38
2023-02-23T18:46:52.901Z,72.05
2023-02-23T18:49:25.140Z,72.11
2023-02-23T18:51:53.776Z,72.48
2023-02-23T18:54:22.532Z,72.23
2023-02-23T18:56:55.897Z,71.96
2023-02-23T18:59:23.759Z,72.62
2023-02-23T19:01:53.701Z,73.60
2023-02-23T19:04:29.401Z,73.15
2023-02-23T19:06:58.886Z,72.87
2023-02-23T19:09:29.201Z,73.84
2023-02-23T19:11:59.957Z,73.14
2023-02-23T19:14:47.865Z,73.28
2023-02-23T19:17:16.431Z,73.01
2023-02-23T19:19:46.679Z,73.84
2023-02-23T19:22:15.370Z,73.93
2023-02-23T19:24:46.936Z,73.44
2023-02-23T19:27:18.401Z,73.61
2023-02-23T19:29:48.018Z,73.28
2023-02-23T19:32:20.324Z,74.02
2023-02-23T19:34:50.508Z,74.49
2023-02-23T19:37:19.904Z,74.50
2023-02-23T19:39:49.003Z,73.72
2023-02-23T19:42:21.898Z,74.75
2023-02-23T19:45:00.734Z,75.43
2023-02-23T19:47:29.683Z,74.46
2023-02-23T19:49:58.287Z,74.25
2023-02-23T19:52:28.802Z,74.05
2023-02-23T19:54:56.863Z,74.84
2023-02-23T19:57:31.384Z,74.58
2023-02-23T20:00:00.119Z,74.65
2023-02-23T20:02:28.722Z,74.98
2023-02-23T20:05:01.734Z,74.92
2023-02-23T20:07:33.146Z,74.01
2023-02-23T20:10:05.441Z,74.10
2023-02-23T20:12:40.692Z,74.26
2023-02-23T20:15:10.785Z,73.85
2023-02-23T20:17:40.212Z,74.64
2023-02-23T20:20:11.995Z,74.85
2023-02-23T20:22:41.255Z,74.04
2023-02-23T20:25:16.927Z,73.80
2023-02-23T20:27:49.879Z,74.23
2023-02-23T20:30:18.826Z,73.93
2023-02-23T20:32:50.291Z,74.76
2023-02-23T20:35:21.863Z,72.85
2023-02-23T20:37:49.818Z,74.67
2023-02-23T20:40:20.089Z,73.94
2023-02-23T20:42:52.838Z,72.58
2023-02-23T20:45:24.327Z,72.80
2023-02-23T20:47:54.138Z,72.57
2023-02-23T20:50:32.982Z,73.02
2023-02-23T20:53:02.705Z,74.59
2023-02-23T20:55:33.610Z,74.14
2023-02-23T20:58:05.879Z,74.12
2023-02-23T21:00:34.331Z,74.13
2023-02-23T21:03:03.824Z,74.30
2023-02-23T21:05:34.614Z,73.75
2023-02-23T21:08:09.988Z,74.14
2023-02-23T21:10:40.513Z,73.74
2023-02-23T21:13:14.583Z,73.42
2023-02-23T21:15:46.392Z,73.46
2023-02-23T21:18:14.670Z,73.17
2023-02-23T21:20:46.154Z,71.40
2023-02-23T21:23:14.258Z,72.37
2023-02-23T21:25:45.719Z,73.52
2023-02-23T21:28:16.822Z,73.27
2023-02-23T21:30:47.248Z,72.28
2023-02-23T21:33:17.992Z,72.96
2023-02-23T21:35:46.671Z,73.54
2023-02-23T21:38:15.516Z,73.14
2023-02-23T21:40:43.865Z,72.12
2023-02-23T21:43:13.810Z,72.41
2023-02-23T21:45:48.791Z,72.93
2023-02-23T21:48:20.165Z,73.00
2023-02-23T21:50:49.557Z,73.50
2023-02-23T21:53:21.321Z,73.11
2023-02-23T21:55:53.790Z,72.68
2023-02-23T21:58:21.714Z,72.01
2023-02-23T22:00:50.945Z,71.69
2023-02-23T22:03:20.887Z,72.13
2023-02-23T22:05:51.530Z,71.82
2023-02-23T22:08:22.773Z,73.06
2023-02-23T22:10:52.672Z,73.57
2023-02-23T22:13:20.979Z,72.69
2023-02-23T22:15:51.531Z,73.11
2023-02-23T22:18:25.258Z,73.38
2023-02-23T22:20:58.740Z,74.31
2023-02-23T22:23:28.616Z,73.89
2023-02-23T22:26:04.139Z,73.81
2023-02-23T22:28:32.954Z,73.46
2023-02-23T22:31:11.015Z,73.80
2023-02-23T22:33:43.495Z,73.98
2023-02-23T22:36:18.100Z,73.56
2023-02-23T22:38:48.027Z,73.87
2023-02-23T22:41:17.814Z,73.54
2023-02-23T22:43:49.945Z,74.56
2023-02-23T22:46:19.448Z,74.48
2023-02-23T22:48:47.553Z,74.96
2023-02-23T22:51:17.939Z,74.01
2023-02-23T22:53:46.169Z,73.89
2023-02-23T22:56:14.018Z,74.36
2023-02-23T22:58:43.138Z,74.18
2023-02-23T23:01:12.531Z,74.53
2023-02-23T23:03:45.670Z,74.82
2023-02-23T23:06:21.936Z,74.60
2023-02-23T23:08:56.252Z,74.63
2023-02-23T23:11:30.123Z,74.09
2023-02-23T23:14:04.039Z,74.65
2023-02-23T23:16:33.907Z,75.22
2023-02-23T23:19:12.652Z,76.15
2023-02-23T23:21:42.219Z,75.15
2023-02-23T23:24:13.188Z,75.76
2023-02-23T23:26:43.023Z,75.62
2023-02-23T23:29:14.557Z,75.72
2023-02-23T23:31:47.152Z,75.35
2023-02-23T23:34:22.191Z,75.72
2023-02-23T23:36:53.147Z,76.35
2023-02-23T23:39:26.330Z,76.12
2023-02-23T23:41:56.744Z,75.99
2023-02-23T23:44:29.827Z,75.97
2023-02-23T23:46:59.888Z,75.93
2023-02-23T23:49:30.563Z,75.95
2023-02-23T23:52:00.310Z,76.73
2023-02-23T23:54:31.844Z,76.32
2023-02-23T23:57:01.922Z,76.25
2023-02-23T23:59:31.840Z,76.87
